createdAt,value
2023-01-30T00:00:10.931Z,89.07
2023-01-30T00:01:10.917Z,89.34
2023-01-30T00:02:10.946Z,89.70
2023-01-30T00:03:10.905Z,89.80
2023-01-30T00:04:10.899Z,90.53
2023-01-30T00:05:10.900Z,90.84
2023-01-30T00:06:10.880Z,90.99
2023-01-30T00:07:10.867Z,91.41
2023-01-30T00:08:10.863Z,91.41
2023-01-30T00:09:10.854Z,91.94
2023-01-30T00:10:10.851Z,92.35
2023-01-30T00:11:10.855Z,92.04
2023-01-30T00:12:10.855Z,91.83
2023-01-30T00:13:10.818Z,92.04
2023-01-30T00:14:11.682Z,92.04
2023-01-30T00:15:10.804Z,92.14
2023-01-30T00:16:10.857Z,92.46
2023-01-30T00:17:10.806Z,92.25
2023-01-30T00:18:10.783Z,92.25
2023-01-30T00:19:11.678Z,92.25
2023-01-30T00:20:10.765Z,92.25
2023-01-30T00:21:10.758Z,92.14
2023-01-30T00:22:10.759Z,91.52
2023-01-30T00:23:10.749Z,91.41
2023-01-30T00:24:10.887Z,91.41
2023-01-30T00:26:00.406Z,91.31
2023-01-30T00:27:00.447Z,91.47
2023-01-30T00:28:00.384Z,91.52
2023-01-30T00:29:00.380Z,91.47
2023-01-30T00:30:03.233Z,91.52
2023-01-30T00:31:00.442Z,91.47
2023-01-30T00:32:00.386Z,91.47
2023-01-30T00:33:00.341Z,91.27
2023-01-30T00:34:00.361Z,91.58
2023-01-30T00:35:00.345Z,90.84
2023-01-30T00:36:00.345Z,90.64
2023-01-30T00:37:08.072Z,90.68
2023-01-30T00:38:01.306Z,91.06
2023-01-30T00:39:00.305Z,91.16
2023-01-30T00:40:00.296Z,91.16
2023-01-30T00:41:00.293Z,91.69
2023-01-30T00:42:00.274Z,91.06
2023-01-30T00:43:00.264Z,90.84
2023-01-30T00:44:00.281Z,90.95
2023-01-30T00:45:00.250Z,91.27
2023-01-30T00:46:00.391Z,90.84
2023-01-30T00:47:00.239Z,90.91
2023-01-30T00:48:00.225Z,90.39
2023-01-30T00:49:01.314Z,90.33
2023-01-30T00:50:01.337Z,89.90
2023-01-30T00:51:01.300Z,90.01
2023-01-30T00:52:01.295Z,90.43
2023-01-30T00:53:01.286Z,90.11
2023-01-30T00:54:01.281Z,89.97
2023-01-30T00:56:05.628Z,90.11
2023-01-30T00:56:13.864Z,90.18
2023-01-30T00:57:12.002Z,90.81
2023-01-30T00:58:11.982Z,91.12
2023-01-30T00:59:11.991Z,90.70
2023-01-30T01:00:11.972Z,90.39
2023-01-30T01:01:11.955Z,90.49
2023-01-30T01:02:11.971Z,90.70
2023-01-30T01:03:11.975Z,90.49
2023-01-30T01:04:11.932Z,90.18
2023-01-30T01:05:12.796Z,90.95
2023-01-30T01:06:11.923Z,91.06
2023-01-30T01:07:11.927Z,90.91
2023-01-30T01:08:11.913Z,90.95
2023-01-30T01:09:11.900Z,90.95
2023-01-30T01:10:11.886Z,90.95
2023-01-30T01:11:11.876Z,90.84
2023-01-30T01:12:11.878Z,91.06
2023-01-30T01:13:11.880Z,91.47
2023-01-30T01:14:11.856Z,91.47
2023-01-30T01:15:11.876Z,91.27
2023-01-30T01:16:11.892Z,91.58
2023-01-30T01:17:11.827Z,91.37
2023-01-30T01:18:11.814Z,90.81
2023-01-30T01:19:12.811Z,90.70
2023-01-30T01:20:11.812Z,91.37
2023-01-30T01:21:11.812Z,90.59
2023-01-30T01:22:11.798Z,91.06
2023-01-30T01:23:11.779Z,91.16
2023-01-30T01:24:12.370Z,91.37
2023-01-30T01:25:11.752Z,91.33
2023-01-30T01:26:12.778Z,91.54
2023-01-30T01:27:12.772Z,91.47
2023-01-30T01:28:11.739Z,91.69
2023-01-30T01:29:12.386Z,91.43
2023-01-30T01:30:11.723Z,91.33
2023-01-30T01:31:11.790Z,91.47
2023-01-30T01:32:11.770Z,91.58
2023-01-30T01:33:11.705Z,91.58
2023-01-30T01:34:11.694Z,91.58
2023-01-30T01:35:11.692Z,91.47
2023-01-30T01:36:13.561Z,91.69
2023-01-30T01:37:12.697Z,91.37
2023-01-30T01:38:11.668Z,91.33
2023-01-30T01:39:11.686Z,91.37
2023-01-30T01:40:11.645Z,91.37
2023-01-30T01:41:12.372Z,91.43
2023-01-30T01:42:11.631Z,91.54
2023-01-30T01:43:11.632Z,91.02
2023-01-30T01:44:11.611Z,90.91
2023-01-30T01:45:11.614Z,90.70
2023-01-30T01:46:11.638Z,91.22
2023-01-30T01:47:11.592Z,90.49
2023-01-30T01:48:11.630Z,91.12
2023-01-30T01:49:11.576Z,90.91
2023-01-30T01:50:11.574Z,91.02
2023-01-30T01:51:11.564Z,91.02
2023-01-30T01:52:11.570Z,91.12
2023-01-30T01:53:11.549Z,91.22
2023-01-30T01:54:11.532Z,90.70
2023-01-30T01:55:11.532Z,90.81
2023-01-30T01:56:11.532Z,90.91
2023-01-30T01:57:11.521Z,90.91
2023-01-30T01:58:12.372Z,90.91
2023-01-30T01:59:11.498Z,90.91
2023-01-30T02:00:11.502Z,90.91
2023-01-30T02:01:11.508Z,90.91
2023-01-30T02:02:11.505Z,90.91
2023-01-30T02:03:11.469Z,90.91
2023-01-30T02:04:11.469Z,90.97
2023-01-30T02:05:11.450Z,90.81
2023-01-30T02:06:12.301Z,90.87
2023-01-30T02:07:11.434Z,90.45
2023-01-30T02:08:11.429Z,90.34
2023-01-30T02:09:11.437Z,90.28
2023-01-30T02:10:11.417Z,90.49
2023-01-30T02:11:11.413Z,90.08
2023-01-30T02:12:11.406Z,90.14
2023-01-30T02:13:11.387Z,90.34
2023-01-30T02:14:11.414Z,90.14
2023-01-30T02:15:11.369Z,89.93
2023-01-30T02:16:11.377Z,90.45
2023-01-30T02:17:11.412Z,90.39
2023-01-30T02:18:11.355Z,90.87
2023-01-30T02:19:11.347Z,91.02
2023-01-30T02:20:11.342Z,90.70
2023-01-30T02:21:11.334Z,90.59
2023-01-30T02:22:11.322Z,90.97
2023-01-30T02:23:11.348Z,90.87
2023-01-30T02:24:11.323Z,91.08
2023-01-30T02:25:11.308Z,90.87
2023-01-30T02:26:11.853Z,90.83
2023-01-30T02:27:11.295Z,90.34
2023-01-30T02:28:11.280Z,90.14
2023-01-30T02:29:11.267Z,90.09
2023-01-30T02:30:11.263Z,90.62
2023-01-30T02:31:11.295Z,90.09
2023-01-30T02:32:11.252Z,90.09
2023-01-30T02:33:11.233Z,90.24
2023-01-30T02:34:11.234Z,90.34
2023-01-30T02:35:11.230Z,90.52
2023-01-30T02:36:11.210Z,90.31
2023-01-30T02:37:11.203Z,90.41
2023-01-30T02:38:11.201Z,90.20
2023-01-30T02:39:11.188Z,90.31
2023-01-30T02:40:11.183Z,89.78
2023-01-30T02:41:11.172Z,89.89
2023-01-30T02:42:11.160Z,89.95
2023-01-30T02:43:11.152Z,90.16
2023-01-30T02:44:11.151Z,89.89
2023-01-30T02:45:11.171Z,90.09
2023-01-30T02:46:11.245Z,90.26
2023-01-30T02:47:11.125Z,89.84
2023-01-30T02:48:11.120Z,90.16
2023-01-30T02:49:11.110Z,90.06
2023-01-30T02:50:11.112Z,90.16
2023-01-30T02:51:11.810Z,90.37
2023-01-30T02:52:11.092Z,90.26
2023-01-30T02:53:11.096Z,90.06
2023-01-30T02:54:11.081Z,90.22
2023-01-30T02:55:11.084Z,90.53
2023-01-30T02:56:11.074Z,90.33
2023-01-30T02:57:11.050Z,90.64
2023-01-30T02:58:11.083Z,90.91
2023-01-30T02:59:11.040Z,90.64
2023-01-30T03:00:11.034Z,90.08
2023-01-30T03:01:11.046Z,90.60
2023-01-30T03:02:11.046Z,90.18
2023-01-30T03:03:11.076Z,90.08
2023-01-30T03:04:11.011Z,90.08
2023-01-30T03:05:10.989Z,89.97
2023-01-30T03:06:10.989Z,90.08
2023-01-30T03:07:10.973Z,90.18
2023-01-30T03:08:11.880Z,90.50
2023-01-30T03:09:10.958Z,91.02
2023-01-30T03:10:10.948Z,90.81
2023-01-30T03:11:10.944Z,91.02
2023-01-30T03:12:10.932Z,91.22
2023-01-30T03:13:10.946Z,91.43
2023-01-30T03:14:10.936Z,91.64
2023-01-30T03:15:10.905Z,92.06
2023-01-30T03:16:10.954Z,92.27
2023-01-30T03:17:10.902Z,92.69
2023-01-30T03:18:10.884Z,92.69
2023-01-30T03:19:10.901Z,93.21
2023-01-30T03:20:10.871Z,93.10
2023-01-30T03:21:11.385Z,92.58
2023-01-30T03:22:10.860Z,93.00
2023-01-30T03:23:10.852Z,93.10
2023-01-30T03:24:10.856Z,93.10
2023-01-30T03:25:10.834Z,93.10
2023-01-30T03:26:10.855Z,92.90
2023-01-30T03:27:10.825Z,93.00
2023-01-30T03:28:10.807Z,92.85
2023-01-30T03:29:10.834Z,92.96
2023-01-30T03:30:10.805Z,93.27
2023-01-30T03:31:10.813Z,93.16
2023-01-30T03:32:10.781Z,92.75
2023-01-30T03:33:10.770Z,92.54
2023-01-30T03:34:10.763Z,92.85
2023-01-30T03:35:10.754Z,92.54
2023-01-30T03:36:10.744Z,92.81
2023-01-30T03:37:10.745Z,92.85
2023-01-30T03:38:10.733Z,92.81
2023-01-30T03:39:10.736Z,92.81
2023-01-30T03:40:10.729Z,93.02
2023-01-30T03:41:10.707Z,93.23
2023-01-30T03:42:10.703Z,93.12
2023-01-30T03:43:10.693Z,93.44
2023-01-30T03:44:10.684Z,93.54
2023-01-30T03:45:10.685Z,93.85
2023-01-30T03:46:10.674Z,93.75
2023-01-30T03:47:10.667Z,93.85
2023-01-30T03:48:10.652Z,93.85
2023-01-30T03:49:10.644Z,93.91
2023-01-30T03:50:10.634Z,93.71
2023-01-30T03:51:10.630Z,93.91
2023-01-30T03:52:10.616Z,93.71
2023-01-30T03:53:10.616Z,93.60
2023-01-30T03:54:10.604Z,93.81
2023-01-30T03:55:10.603Z,93.75
2023-01-30T03:56:10.642Z,93.81
2023-01-30T03:57:10.583Z,94.02
2023-01-30T03:58:10.575Z,94.17
2023-01-30T03:59:10.563Z,93.65
2023-01-30T04:00:10.575Z,93.75
2023-01-30T04:01:10.582Z,93.71
2023-01-30T04:02:10.557Z,94.06
2023-01-30T04:03:10.528Z,93.44
2023-01-30T04:04:10.534Z,93.75
2023-01-30T04:05:10.513Z,93.33
2023-01-30T04:06:10.520Z,93.23
2023-01-30T04:07:10.502Z,93.75
2023-01-30T04:08:10.497Z,93.44
2023-01-30T04:09:10.480Z,93.44
2023-01-30T04:10:10.474Z,93.75
2023-01-30T04:11:10.482Z,94.37
2023-01-30T04:12:10.467Z,94.27
2023-01-30T04:13:10.452Z,94.37
2023-01-30T04:14:10.452Z,94.27
2023-01-30T04:15:10.437Z,94.69
2023-01-30T04:16:10.435Z,94.69
2023-01-30T04:17:10.426Z,94.37
2023-01-30T04:18:10.411Z,94.69
2023-01-30T04:19:11.409Z,94.69
2023-01-30T04:20:10.396Z,94.17
2023-01-30T04:21:11.329Z,94.58
2023-01-30T04:22:10.380Z,94.79
2023-01-30T04:23:10.376Z,95.10
2023-01-30T04:24:10.379Z,94.58
2023-01-30T04:25:10.363Z,94.58
2023-01-30T04:26:10.432Z,94.90
2023-01-30T04:27:10.352Z,94.27
2023-01-30T04:28:10.343Z,94.69
2023-01-30T04:29:10.328Z,95.42
2023-01-30T04:30:10.324Z,94.79
2023-01-30T04:31:10.324Z,94.69
2023-01-30T04:32:10.315Z,94.48
2023-01-30T04:33:10.296Z,94.79
2023-01-30T04:34:10.900Z,94.37
2023-01-30T04:35:10.283Z,94.58
2023-01-30T04:36:10.271Z,95.21
2023-01-30T04:37:10.270Z,94.43
2023-01-30T04:38:10.245Z,94.85
2023-01-30T04:39:11.247Z,94.96
2023-01-30T04:40:10.237Z,93.81
2023-01-30T04:41:10.235Z,94.33
2023-01-30T04:42:10.246Z,94.54
2023-01-30T04:43:10.221Z,94.64
2023-01-30T04:44:10.217Z,94.23
2023-01-30T04:45:10.203Z,93.81
2023-01-30T04:46:10.202Z,93.81
2023-01-30T04:47:10.183Z,93.87
2023-01-30T04:48:10.188Z,94.02
2023-01-30T04:49:10.179Z,93.60
2023-01-30T04:50:10.165Z,93.98
2023-01-30T04:51:10.160Z,93.29
2023-01-30T04:52:10.149Z,93.71
2023-01-30T04:53:10.138Z,93.04
2023-01-30T04:54:10.135Z,93.35
2023-01-30T04:55:10.122Z,92.52
2023-01-30T04:56:10.117Z,92.52
2023-01-30T04:57:10.116Z,92.83
2023-01-30T04:58:10.101Z,92.93
2023-01-30T04:59:10.087Z,92.72
2023-01-30T05:00:11.083Z,92.62
2023-01-30T05:01:10.089Z,92.52
2023-01-30T05:02:10.108Z,92.41
2023-01-30T05:03:10.056Z,92.00
2023-01-30T05:04:10.061Z,92.00
2023-01-30T05:05:10.047Z,92.10
2023-01-30T05:06:10.044Z,92.00
2023-01-30T05:07:10.032Z,92.00
2023-01-30T05:08:10.023Z,91.53
2023-01-30T05:09:10.022Z,91.75
2023-01-30T05:10:10.012Z,91.37
2023-01-30T05:11:09.995Z,91.37
2023-01-30T05:12:09.989Z,91.43
2023-01-30T05:13:09.980Z,91.06
2023-01-30T05:14:09.976Z,91.33
2023-01-30T05:15:09.976Z,91.78
2023-01-30T05:16:09.954Z,91.58
2023-01-30T05:17:10.033Z,91.75
2023-01-30T05:18:09.944Z,91.47
2023-01-30T05:19:09.951Z,91.78
2023-01-30T05:20:09.955Z,92.06
2023-01-30T05:21:09.924Z,92.10
2023-01-30T05:22:09.915Z,92.47
2023-01-30T05:23:09.907Z,92.47
2023-01-30T05:24:09.893Z,92.10
2023-01-30T05:25:09.928Z,92.52
2023-01-30T05:26:09.923Z,92.41
2023-01-30T05:27:09.873Z,92.10
2023-01-30T05:28:10.860Z,92.62
2023-01-30T05:29:09.852Z,92.79
2023-01-30T05:30:09.846Z,92.79
2023-01-30T05:31:09.974Z,92.41
2023-01-30T05:32:09.840Z,93.20
2023-01-30T05:33:09.823Z,93.56
2023-01-30T05:34:09.813Z,93.31
2023-01-30T05:35:10.802Z,93.77
2023-01-30T05:36:10.334Z,93.98
2023-01-30T05:37:09.793Z,93.98
2023-01-30T05:38:09.787Z,93.87
2023-01-30T05:39:09.811Z,93.87
2023-01-30T05:40:09.769Z,94.29
2023-01-30T05:41:09.772Z,94.14
2023-01-30T05:42:09.755Z,94.04
2023-01-30T05:43:09.756Z,93.93
2023-01-30T05:44:11.666Z,93.77
2023-01-30T05:45:09.760Z,93.56
2023-01-30T05:46:09.725Z,93.83
2023-01-30T05:47:09.718Z,93.87
2023-01-30T05:48:09.704Z,94.08
2023-01-30T05:49:09.702Z,94.04
2023-01-30T05:50:09.693Z,93.83
2023-01-30T05:51:56.809Z,93.52
2023-01-30T05:52:56.807Z,93.83
2023-01-30T05:53:57.874Z,93.62
2023-01-30T05:54:57.885Z,93.62
2023-01-30T05:55:59.443Z,93.62
2023-01-30T05:56:57.848Z,93.52
2023-01-30T05:57:57.837Z,93.52
2023-01-30T05:58:57.835Z,93.52
2023-01-30T05:59:57.822Z,93.52
2023-01-30T06:00:57.830Z,93.83
2023-01-30T06:01:58.807Z,93.31
2023-01-30T06:02:57.865Z,93.41
2023-01-30T06:03:57.840Z,93.10
2023-01-30T06:04:57.773Z,93.41
2023-01-30T06:05:58.785Z,92.95
2023-01-30T06:06:57.832Z,93.20
2023-01-30T06:09:04.625Z,92.95
2023-01-30T06:10:04.604Z,93.27
2023-01-30T06:11:05.684Z,93.16
2023-01-30T06:12:05.674Z,93.05
2023-01-30T06:13:05.684Z,92.95
2023-01-30T06:14:05.693Z,92.95
2023-01-30T06:15:05.662Z,93.27
2023-01-30T06:16:05.659Z,92.95
2023-01-30T06:17:05.665Z,92.43
2023-01-30T06:18:05.626Z,92.33
2023-01-30T06:19:05.625Z,93.27
2023-01-30T06:20:05.609Z,93.27
2023-01-30T06:21:05.607Z,93.37
2023-01-30T06:22:05.704Z,92.33
2023-01-30T06:23:06.055Z,92.33
2023-01-30T06:24:05.574Z,92.64
2023-01-30T06:25:05.568Z,92.54
2023-01-30T06:26:09.058Z,92.85
2023-01-30T06:27:06.546Z,92.85
2023-01-30T06:28:06.551Z,92.85
2023-01-30T06:29:06.044Z,92.85
2023-01-30T06:30:05.534Z,92.54
2023-01-30T06:31:05.637Z,92.91
2023-01-30T06:32:07.500Z,92.91
2023-01-30T06:33:05.604Z,92.43
2023-01-30T06:34:05.650Z,92.80
2023-01-30T06:35:05.491Z,92.18
2023-01-30T06:36:07.981Z,92.91
2023-01-30T06:37:08.040Z,92.85
2023-01-30T06:38:05.481Z,92.49
2023-01-30T06:39:05.473Z,92.85
2023-01-30T06:40:05.566Z,93.05
2023-01-30T06:41:05.441Z,93.27
2023-01-30T06:42:05.448Z,93.16
2023-01-30T06:43:05.426Z,92.95
2023-01-30T06:44:05.417Z,92.33
2023-01-30T06:45:05.423Z,92.54
2023-01-30T06:46:05.433Z,92.95
2023-01-30T06:47:05.415Z,93.27
2023-01-30T06:48:05.382Z,93.48
2023-01-30T06:49:05.382Z,93.16
2023-01-30T06:50:06.982Z,92.33
2023-01-30T06:51:05.368Z,92.43
2023-01-30T06:52:05.356Z,92.43
2023-01-30T06:53:05.425Z,92.74
2023-01-30T06:54:05.350Z,92.85
2023-01-30T06:56:11.624Z,92.33
2023-01-30T06:57:12.462Z,92.85
2023-01-30T06:58:11.597Z,92.95
2023-01-30T06:59:11.600Z,93.27
2023-01-30T07:00:12.706Z,93.01
2023-01-30T07:01:12.665Z,93.33
2023-01-30T07:02:12.668Z,92.80
2023-01-30T07:03:12.684Z,92.12
2023-01-30T07:04:12.665Z,92.95
2023-01-30T07:05:12.647Z,93.27
2023-01-30T07:06:12.608Z,93.41
2023-01-30T07:07:13.614Z,93.58
2023-01-30T07:08:12.611Z,93.89
2023-01-30T07:09:12.616Z,93.99
2023-01-30T07:10:12.604Z,94.20
2023-01-30T07:11:12.579Z,93.68
2023-01-30T07:12:12.572Z,94.56
2023-01-30T07:13:12.583Z,94.41
2023-01-30T07:14:12.561Z,94.72
2023-01-30T07:15:12.564Z,94.20
2023-01-30T07:16:12.536Z,94.41
2023-01-30T07:17:12.528Z,94.20
2023-01-30T07:18:12.516Z,94.24
2023-01-30T07:19:12.519Z,93.79
2023-01-30T07:20:12.534Z,93.89
2023-01-30T07:21:12.502Z,94.14
2023-01-30T07:22:12.484Z,94.10
2023-01-30T07:23:12.483Z,94.14
2023-01-30T07:24:12.474Z,93.99
2023-01-30T07:25:12.463Z,94.31
2023-01-30T07:26:12.506Z,95.03
2023-01-30T07:27:12.516Z,94.31
2023-01-30T07:28:15.080Z,94.51
2023-01-30T07:29:12.433Z,94.41
2023-01-30T07:30:13.048Z,94.10
2023-01-30T07:31:12.417Z,93.79
2023-01-30T07:32:12.418Z,94.82
2023-01-30T07:33:12.409Z,94.24
2023-01-30T07:34:12.392Z,93.99
2023-01-30T07:35:12.383Z,94.51
2023-01-30T07:36:12.377Z,94.10
2023-01-30T07:37:12.375Z,94.10
2023-01-30T07:38:12.367Z,94.41
2023-01-30T07:39:12.367Z,94.41
2023-01-30T07:40:12.446Z,94.62
2023-01-30T07:41:12.335Z,94.72
2023-01-30T07:42:12.339Z,94.51
2023-01-30T07:43:12.978Z,94.76
2023-01-30T07:44:12.312Z,94.41
2023-01-30T07:45:13.047Z,94.72
2023-01-30T07:46:12.294Z,94.51
2023-01-30T07:47:12.373Z,95.50
2023-01-30T07:48:12.276Z,95.39
2023-01-30T07:49:12.266Z,95.70
2023-01-30T07:50:12.270Z,95.81
2023-01-30T07:51:12.260Z,96.12
2023-01-30T07:52:12.247Z,96.01
2023-01-30T07:53:12.267Z,95.70
2023-01-30T07:54:12.249Z,95.97
2023-01-30T07:55:12.220Z,95.81
2023-01-30T07:56:12.223Z,96.18
2023-01-30T07:57:19.971Z,96.01
2023-01-30T07:58:20.982Z,95.87
2023-01-30T07:59:13.991Z,95.87
2023-01-30T08:00:16.305Z,95.66
2023-01-30T08:01:12.232Z,95.66
2023-01-30T08:02:14.083Z,96.08
2023-01-30T08:03:12.152Z,95.97
2023-01-30T08:04:12.247Z,96.01
2023-01-30T08:05:12.152Z,95.97
2023-01-30T08:06:12.130Z,96.22
2023-01-30T08:07:12.127Z,96.08
2023-01-30T08:08:12.144Z,95.87
2023-01-30T08:09:12.116Z,95.76
2023-01-30T08:10:12.288Z,96.28
2023-01-30T08:11:15.071Z,96.18
2023-01-30T08:12:12.089Z,96.39
2023-01-30T08:13:12.101Z,95.66
2023-01-30T08:14:12.075Z,95.87
2023-01-30T08:15:12.076Z,96.18
2023-01-30T08:16:12.175Z,96.28
2023-01-30T08:18:18.342Z,95.87
2023-01-30T08:19:19.426Z,96.08
2023-01-30T08:20:19.737Z,95.87
2023-01-30T08:21:19.414Z,95.83
2023-01-30T08:22:19.407Z,95.30
2023-01-30T08:23:19.388Z,95.20
2023-01-30T08:24:19.375Z,95.20
2023-01-30T08:25:19.373Z,94.89
2023-01-30T08:26:19.418Z,95.20
2023-01-30T08:27:20.193Z,94.78
2023-01-30T08:28:19.364Z,94.99
2023-01-30T08:29:33.361Z,94.99
2023-01-30T08:30:19.888Z,94.99
2023-01-30T08:31:20.790Z,94.57
2023-01-30T08:32:19.314Z,94.68
2023-01-30T08:33:19.309Z,94.64
2023-01-30T08:34:19.326Z,94.06
2023-01-30T08:35:19.319Z,94.78
2023-01-30T08:36:19.278Z,94.99
2023-01-30T08:37:20.281Z,94.47
2023-01-30T08:38:19.269Z,94.68
2023-01-30T08:39:19.269Z,95.30
2023-01-30T08:40:19.538Z,94.74
2023-01-30T08:41:20.248Z,94.47
2023-01-30T08:42:20.201Z,94.47
2023-01-30T08:43:19.228Z,94.53
2023-01-30T08:44:19.222Z,94.53
2023-01-30T08:45:19.224Z,94.43
2023-01-30T08:46:19.218Z,94.43
2023-01-30T08:47:20.189Z,93.70
2023-01-30T08:48:19.223Z,94.12
2023-01-30T08:49:19.198Z,94.18
2023-01-30T08:50:19.445Z,94.18
2023-01-30T08:51:19.167Z,93.97
2023-01-30T08:52:20.761Z,94.28
2023-01-30T08:53:19.198Z,94.28
2023-01-30T08:54:19.141Z,94.18
2023-01-30T08:55:19.150Z,93.82
2023-01-30T08:56:19.140Z,93.72
2023-01-30T08:57:19.125Z,94.03
2023-01-30T08:58:19.692Z,93.72
2023-01-30T08:59:19.100Z,94.13
2023-01-30T09:00:19.440Z,93.88
2023-01-30T09:01:19.139Z,93.47
2023-01-30T09:02:19.126Z,93.57
2023-01-30T09:03:19.076Z,93.47
2023-01-30T09:04:19.067Z,92.84
2023-01-30T09:05:19.064Z,93.57
2023-01-30T09:06:19.053Z,92.90
2023-01-30T09:07:20.049Z,93.01
2023-01-30T09:08:19.045Z,92.49
2023-01-30T09:09:19.034Z,92.55
2023-01-30T09:10:19.432Z,91.86
2023-01-30T09:11:19.031Z,92.18
2023-01-30T09:12:19.002Z,91.76
2023-01-30T09:13:19.066Z,92.07
2023-01-30T09:14:19.686Z,92.69
2023-01-30T09:15:18.993Z,92.80
2023-01-30T09:16:19.038Z,92.28
2023-01-30T09:17:18.966Z,92.55
2023-01-30T09:18:18.970Z,92.66
2023-01-30T09:19:18.976Z,91.93
2023-01-30T09:20:20.109Z,92.28
2023-01-30T09:21:18.934Z,93.01
2023-01-30T09:22:23.850Z,92.97
2023-01-30T09:23:25.692Z,92.45
2023-01-30T09:24:23.920Z,91.41
2023-01-30T09:25:18.924Z,91.37
2023-01-30T09:26:19.932Z,90.75
2023-01-30T09:27:18.897Z,91.58
2023-01-30T09:28:18.905Z,91.16
2023-01-30T09:29:20.869Z,91.64
2023-01-30T09:30:21.664Z,91.12
2023-01-30T09:31:20.857Z,90.66
2023-01-30T09:32:23.699Z,90.70
2023-01-30T09:33:18.844Z,90.14
2023-01-30T09:34:18.859Z,89.42
2023-01-30T09:35:18.835Z,89.11
2023-01-30T09:36:19.078Z,89.31
2023-01-30T09:37:18.814Z,89.31
2023-01-30T09:38:18.798Z,89.52
2023-01-30T09:39:18.794Z,89.31
2023-01-30T09:40:19.211Z,89.73
2023-01-30T09:41:19.694Z,89.83
2023-01-30T09:42:18.759Z,89.46
2023-01-30T09:43:18.779Z,89.36
2023-01-30T09:44:18.747Z,89.31
2023-01-30T09:45:18.743Z,89.77
2023-01-30T09:46:18.781Z,89.42
2023-01-30T09:47:18.727Z,89.07
2023-01-30T09:48:19.658Z,89.07
2023-01-30T09:49:18.725Z,88.96
2023-01-30T09:50:19.230Z,88.03
2023-01-30T09:51:19.280Z,87.88
2023-01-30T09:52:18.710Z,88.09
2023-01-30T09:54:32.826Z,87.27
2023-01-30T09:55:25.547Z,87.16
2023-01-30T09:56:25.527Z,87.88
2023-01-30T09:57:26.619Z,87.88
2023-01-30T09:58:26.614Z,87.37
2023-01-30T09:59:26.586Z,87.27
2023-01-30T10:00:26.595Z,86.85
2023-01-30T10:01:26.612Z,87.16
2023-01-30T10:02:26.559Z,86.96
2023-01-30T10:03:26.621Z,86.99
2023-01-30T10:04:26.577Z,87.51
2023-01-30T10:05:26.665Z,87.27
2023-01-30T10:06:26.532Z,87.27
2023-01-30T10:07:26.550Z,87.27
2023-01-30T10:08:26.512Z,87.57
2023-01-30T10:09:26.499Z,87.51
2023-01-30T10:10:26.498Z,87.20
2023-01-30T10:11:26.486Z,87.35
2023-01-30T10:12:26.484Z,87.62
2023-01-30T10:13:26.473Z,87.51
2023-01-30T10:14:26.483Z,87.20
2023-01-30T10:15:26.463Z,86.62
2023-01-30T10:16:26.456Z,87.14
2023-01-30T10:17:27.000Z,87.55
2023-01-30T10:18:26.434Z,87.97
2023-01-30T10:19:35.578Z,87.76
2023-01-30T10:20:28.415Z,87.38
2023-01-30T10:21:26.406Z,87.90
2023-01-30T10:22:26.438Z,88.94
2023-01-30T10:23:26.398Z,88.94
2023-01-30T10:24:26.432Z,89.00
2023-01-30T10:25:26.378Z,87.80
2023-01-30T10:26:26.396Z,87.90
2023-01-30T10:27:26.375Z,87.80
2023-01-30T10:28:26.357Z,88.84
2023-01-30T10:29:26.346Z,88.79
2023-01-30T10:30:26.382Z,88.28
2023-01-30T10:31:26.399Z,87.76
2023-01-30T10:32:26.344Z,87.66
2023-01-30T10:33:26.315Z,87.55
2023-01-30T10:34:26.343Z,87.62
2023-01-30T10:35:27.325Z,87.93
2023-01-30T10:36:26.310Z,87.51
2023-01-30T10:37:26.276Z,87.10
2023-01-30T10:38:26.289Z,87.30
2023-01-30T10:39:26.260Z,86.79
2023-01-30T10:40:26.285Z,86.79
2023-01-30T10:41:26.278Z,87.76
2023-01-30T10:42:26.930Z,87.62
2023-01-30T10:43:26.225Z,87.51
2023-01-30T10:44:26.239Z,87.20
2023-01-30T10:45:26.232Z,87.51
2023-01-30T10:46:26.369Z,87.20
2023-01-30T10:47:27.897Z,86.89
2023-01-30T10:48:42.166Z,87.27
2023-01-30T10:49:28.174Z,86.40
2023-01-30T10:50:26.177Z,86.33
2023-01-30T10:51:26.167Z,86.60
2023-01-30T10:52:26.166Z,86.29
2023-01-30T10:53:26.145Z,85.47
2023-01-30T10:54:28.103Z,85.88
2023-01-30T10:55:37.345Z,85.68
2023-01-30T10:56:28.129Z,84.91
2023-01-30T10:57:26.115Z,85.42
2023-01-30T10:58:28.926Z,85.53
2023-01-30T10:59:27.109Z,84.87
2023-01-30T11:00:26.119Z,84.60
2023-01-30T11:01:26.144Z,85.42
2023-01-30T11:02:26.286Z,85.53
2023-01-30T11:03:26.086Z,85.22
2023-01-30T11:04:26.061Z,85.08
2023-01-30T11:05:26.057Z,85.32
2023-01-30T11:06:26.041Z,85.28
2023-01-30T11:07:26.097Z,85.49
2023-01-30T11:08:26.075Z,85.49
2023-01-30T11:09:26.021Z,84.66
2023-01-30T11:10:26.007Z,84.21
2023-01-30T11:11:26.004Z,83.86
2023-01-30T11:12:26.007Z,83.55
2023-01-30T11:13:25.994Z,82.93
2023-01-30T11:14:25.988Z,82.42
2023-01-30T11:15:27.524Z,82.59
2023-01-30T11:16:26.044Z,82.89
2023-01-30T11:17:26.543Z,82.89
2023-01-30T11:19:18.263Z,82.28
2023-01-30T11:19:27.995Z,82.69
2023-01-30T11:20:25.965Z,82.59
2023-01-30T11:21:34.969Z,82.93
2023-01-30T11:22:25.952Z,83.00
2023-01-30T11:23:25.922Z,82.69
2023-01-30T11:24:25.919Z,82.69
2023-01-30T11:25:25.904Z,82.28
2023-01-30T11:26:32.092Z,82.21
2023-01-30T11:27:27.889Z,82.00
2023-01-30T11:28:25.892Z,82.10
2023-01-30T11:29:25.905Z,82.04
2023-01-30T11:30:25.871Z,82.10
2023-01-30T11:31:40.326Z,82.21
2023-01-30T11:32:27.880Z,81.66
2023-01-30T11:33:25.837Z,81.45
2023-01-30T11:34:26.624Z,80.58
2023-01-30T11:35:25.825Z,80.07
2023-01-30T11:36:25.821Z,79.97
2023-01-30T11:37:25.809Z,80.48
2023-01-30T11:38:26.445Z,79.93
2023-01-30T11:39:26.463Z,79.52
2023-01-30T11:40:25.783Z,79.21
2023-01-30T11:41:25.785Z,79.72
2023-01-30T11:42:25.773Z,79.45
2023-01-30T11:43:25.755Z,80.48
2023-01-30T11:44:25.745Z,80.44
2023-01-30T11:45:25.748Z,80.07
2023-01-30T11:46:25.735Z,79.83
2023-01-30T11:47:25.828Z,80.44
2023-01-30T11:48:32.993Z,79.62
2023-01-30T11:49:48.230Z,80.44
2023-01-30T11:50:29.722Z,81.21
2023-01-30T11:51:27.502Z,81.10
2023-01-30T11:52:25.692Z,80.76
2023-01-30T11:53:25.701Z,80.90
2023-01-30T11:54:25.683Z,81.51
2023-01-30T11:55:25.672Z,81.41
2023-01-30T11:56:28.445Z,81.10
2023-01-30T11:57:26.672Z,81.00
2023-01-30T11:59:33.118Z,81.31
2023-01-30T12:00:33.113Z,81.62
2023-01-30T12:01:33.106Z,82.03
2023-01-30T12:02:33.114Z,82.45
2023-01-30T12:03:34.266Z,82.14
2023-01-30T12:04:34.212Z,81.41
2023-01-30T12:05:35.165Z,81.72
2023-01-30T12:06:34.858Z,82.03
2023-01-30T12:07:34.153Z,82.24
2023-01-30T12:08:41.748Z,81.51
2023-01-30T12:09:36.153Z,81.45
2023-01-30T12:10:36.776Z,81.86
2023-01-30T12:11:34.127Z,81.45
2023-01-30T12:12:34.126Z,81.86
2023-01-30T12:13:34.110Z,82.17
2023-01-30T12:14:34.118Z,82.07
2023-01-30T12:15:34.776Z,81.14
2023-01-30T12:16:34.132Z,81.35
2023-01-30T12:17:34.087Z,81.66
2023-01-30T12:18:34.784Z,82.28
2023-01-30T12:19:35.780Z,82.79
2023-01-30T12:20:37.855Z,82.69
2023-01-30T12:21:34.063Z,83.31
2023-01-30T12:22:34.045Z,83.31
2023-01-30T12:23:35.858Z,82.86
2023-01-30T12:24:34.024Z,82.75
2023-01-30T12:25:34.039Z,82.51
2023-01-30T12:26:34.148Z,81.89
2023-01-30T12:27:42.801Z,81.48
2023-01-30T12:28:37.386Z,81.10
2023-01-30T12:29:34.874Z,81.00
2023-01-30T12:30:34.015Z,82.24
2023-01-30T12:31:33.961Z,82.65
2023-01-30T12:32:34.878Z,82.45
2023-01-30T12:33:33.952Z,82.55
2023-01-30T12:34:34.869Z,81.51
2023-01-30T12:35:37.872Z,81.72
2023-01-30T12:36:33.917Z,81.93
2023-01-30T12:37:33.920Z,81.37
2023-01-30T12:38:33.912Z,80.86
2023-01-30T12:39:33.908Z,80.44
2023-01-30T12:40:33.894Z,80.04
2023-01-30T12:41:34.890Z,79.52
2023-01-30T12:42:33.875Z,78.59
2023-01-30T12:43:34.900Z,78.86
2023-01-30T12:44:33.864Z,78.72
2023-01-30T12:45:33.861Z,78.14
2023-01-30T12:46:33.902Z,78.34
2023-01-30T12:47:33.934Z,77.52
2023-01-30T12:48:40.824Z,78.34
2023-01-30T12:49:36.312Z,77.90
2023-01-30T12:50:33.810Z,77.38
2023-01-30T12:51:33.801Z,77.48
2023-01-30T12:52:34.383Z,77.69
2023-01-30T12:53:33.797Z,77.59
2023-01-30T12:54:33.781Z,77.18
2023-01-30T12:55:33.793Z,76.66
2023-01-30T12:56:34.299Z,76.97
2023-01-30T12:57:33.802Z,77.38
2023-01-30T12:58:33.784Z,77.48
2023-01-30T12:59:35.385Z,77.28